sensor_id;sensor_type;location;lat;lon;timestamp;P1;durP1;ratioP1;P2;durP2;ratioP2
68866;SDS011;56451;44.804;20.476;2022-08-23T00:01:44;4.53;;;2.23;;
68866;SDS011;56451;44.804;20.476;2022-08-23T00:04:17;5.85;;;3.33;;
68866;SDS011;56451;44.804;20.476;2022-08-23T00:06:47;6.50;;;4.55;;
68866;SDS011;56451;44.804;20.476;2022-08-23T00:09:15;5.63;;;4.50;;
68866;SDS011;56451;44.804;20.476;2022-08-23T00:11:43;9.63;;;5.22;;
68866;SDS011;56451;44.804;20.476;2022-08-23T00:14:18;7.43;;;4.77;;
68866;SDS011;56451;44.804;20.476;2022-08-23T00:16:46;7.68;;;5.18;;
68866;SDS011;56451;44.804;20.476;2022-08-23T00:19:14;10.32;;;5.72;;
68866;SDS011;56451;44.804;20.476;2022-08-23T00:21:41;9.45;;;5.18;;
68866;SDS011;56451;44.804;20.476;2022-08-23T00:24:09;8.55;;;5.53;;
68866;SDS011;56451;44.804;20.476;2022-08-23T00:26:53;6.90;;;5.10;;
68866;SDS011;56451;44.804;20.476;2022-08-23T00:29:35;7.22;;;4.93;;
68866;SDS011;56451;44.804;20.476;2022-08-23T00:32:05;7.85;;;5.45;;
68866;SDS011;56451;44.804;20.476;2022-08-23T00:34:35;9.90;;;5.75;;
68866;SDS011;56451;44.804;20.476;2022-08-23T00:37:02;9.05;;;5.60;;
68866;SDS011;56451;44.804;20.476;2022-08-23T00:39:29;8.60;;;5.70;;
68866;SDS011;56451;44.804;20.476;2022-08-23T00:41:56;7.35;;;5.65;;
68866;SDS011;56451;44.804;20.476;2022-08-23T00:44:50;8.85;;;5.70;;
68866;SDS011;56451;44.804;20.476;2022-08-23T00:47:34;8.05;;;5.90;;
68866;SDS011;56451;44.804;20.476;2022-08-23T00:52:53;8.50;;;6.05;;
68866;SDS011;56451;44.804;20.476;2022-08-23T00:55:37;8.88;;;5.93;;
68866;SDS011;56451;44.804;20.476;2022-08-23T00:58:07;6.68;;;5.57;;
68866;SDS011;56451;44.804;20.476;2022-08-23T01:00:33;7.22;;;5.32;;
68866;SDS011;56451;44.804;20.476;2022-08-23T01:03:00;6.40;;;5.07;;
68866;SDS011;56451;44.804;20.476;2022-08-23T01:05:29;8.57;;;5.47;;
68866;SDS011;56451;44.804;20.476;2022-08-23T01:07:59;5.65;;;4.80;;
68866;SDS011;56451;44.804;20.476;2022-08-23T01:16:02;6.03;;;3.97;;
68866;SDS011;56451;44.804;20.476;2022-08-23T01:18:34;4.10;;;3.70;;
68866;SDS011;56451;44.804;20.476;2022-08-23T01:23:46;5.47;;;3.50;;
68866;SDS011;56451;44.804;20.476;2022-08-23T01:26:17;8.27;;;3.83;;
68866;SDS011;56451;44.804;20.476;2022-08-23T01:28:45;5.77;;;3.70;;
68866;SDS011;56451;44.804;20.476;2022-08-23T01:31:12;4.97;;;3.90;;
68866;SDS011;56451;44.804;20.476;2022-08-23T01:33:39;5.60;;;3.90;;
68866;SDS011;56451;44.804;20.476;2022-08-23T01:36:10;4.80;;;3.70;;
68866;SDS011;56451;44.804;20.476;2022-08-23T01:38:38;7.38;;;4.30;;
68866;SDS011;56451;44.804;20.476;2022-08-23T01:41:04;5.77;;;4.60;;
68866;SDS011;56451;44.804;20.476;2022-08-23T01:43:31;8.18;;;4.72;;
68866;SDS011;56451;44.804;20.476;2022-08-23T01:45:58;6.82;;;4.53;;
68866;SDS011;56451;44.804;20.476;2022-08-23T01:48:36;7.38;;;5.05;;
68866;SDS011;56451;44.804;20.476;2022-08-23T01:51:02;5.73;;;5.03;;
68866;SDS011;56451;44.804;20.476;2022-08-23T01:53:30;6.45;;;4.57;;
68866;SDS011;56451;44.804;20.476;2022-08-23T01:55:56;8.10;;;4.43;;
68866;SDS011;56451;44.804;20.476;2022-08-23T01:58:23;6.30;;;4.07;;
68866;SDS011;56451;44.804;20.476;2022-08-23T02:00:49;5.37;;;4.53;;
68866;SDS011;56451;44.804;20.476;2022-08-23T02:03:15;7.18;;;4.78;;
68866;SDS011;56451;44.804;20.476;2022-08-23T02:05:41;5.60;;;4.63;;
68866;SDS011;56451;44.804;20.476;2022-08-23T02:08:10;7.45;;;4.68;;
68866;SDS011;56451;44.804;20.476;2022-08-23T02:10:55;6.05;;;5.05;;
68866;SDS011;56451;44.804;20.476;2022-08-23T02:13:23;7.93;;;4.70;;
68866;SDS011;56451;44.804;20.476;2022-08-23T02:15:50;6.18;;;4.90;;
68866;SDS011;56451;44.804;20.476;2022-08-23T02:18:18;7.18;;;4.63;;
68866;SDS011;56451;44.804;20.476;2022-08-23T02:20:45;6.93;;;4.95;;
68866;SDS011;56451;44.804;20.476;2022-08-23T02:23:13;5.53;;;4.70;;
68866;SDS011;56451;44.804;20.476;2022-08-23T02:25:39;9.10;;;5.03;;
68866;SDS011;56451;44.804;20.476;2022-08-23T02:28:05;6.63;;;5.13;;
68866;SDS011;56451;44.804;20.476;2022-08-23T02:30:32;7.75;;;5.45;;
68866;SDS011;56451;44.804;20.476;2022-08-23T02:32:59;6.45;;;4.60;;
68866;SDS011;56451;44.804;20.476;2022-08-23T02:35:25;6.43;;;5.13;;
68866;SDS011;56451;44.804;20.476;2022-08-23T02:37:51;6.03;;;4.90;;
68866;SDS011;56451;44.804;20.476;2022-08-23T02:40:19;8.13;;;5.05;;
68866;SDS011;56451;44.804;20.476;2022-08-23T02:42:46;7.35;;;5.00;;
68866;SDS011;56451;44.804;20.476;2022-08-23T02:45:12;6.32;;;4.88;;
68866;SDS011;56451;44.804;20.476;2022-08-23T02:47:43;6.13;;;4.47;;
68866;SDS011;56451;44.804;20.476;2022-08-23T02:50:15;6.90;;;4.80;;
68866;SDS011;56451;44.804;20.476;2022-08-23T02:52:41;6.38;;;4.93;;
68866;SDS011;56451;44.804;20.476;2022-08-23T02:55:07;6.57;;;4.90;;
68866;SDS011;56451;44.804;20.476;2022-08-23T02:57:33;6.27;;;4.30;;
68866;SDS011;56451;44.804;20.476;2022-08-23T03:00:03;4.72;;;4.22;;
68866;SDS011;56451;44.804;20.476;2022-08-23T03:02:30;6.30;;;4.75;;
68866;SDS011;56451;44.804;20.476;2022-08-23T03:04:55;6.35;;;4.97;;
68866;SDS011;56451;44.804;20.476;2022-08-23T03:07:21;7.03;;;4.60;;
68866;SDS011;56451;44.804;20.476;2022-08-23T03:09:47;6.70;;;5.18;;
68866;SDS011;56451;44.804;20.476;2022-08-23T03:12:13;6.43;;;5.55;;
68866;SDS011;56451;44.804;20.476;2022-08-23T03:14:45;8.52;;;5.93;;
68866;SDS011;56451;44.804;20.476;2022-08-23T03:17:11;7.00;;;5.83;;
68866;SDS011;56451;44.804;20.476;2022-08-23T03:19:37;6.38;;;5.47;;
68866;SDS011;56451;44.804;20.476;2022-08-23T03:22:02;7.57;;;5.53;;
68866;SDS011;56451;44.804;20.476;2022-08-23T03:24:29;9.23;;;6.07;;
68866;SDS011;56451;44.804;20.476;2022-08-23T03:26:54;6.82;;;6.13;;
68866;SDS011;56451;44.804;20.476;2022-08-23T03:29:20;8.73;;;6.28;;
68866;SDS011;56451;44.804;20.476;2022-08-23T03:32:12;8.60;;;6.35;;
68866;SDS011;56451;44.804;20.476;2022-08-23T03:34:39;8.37;;;5.87;;
68866;SDS011;56451;44.804;20.476;2022-08-23T03:37:06;7.05;;;5.85;;
68866;SDS011;56451;44.804;20.476;2022-08-23T03:39:33;8.18;;;6.40;;
68866;SDS011;56451;44.804;20.476;2022-08-23T03:41:59;9.00;;;6.68;;
68866;SDS011;56451;44.804;20.476;2022-08-23T03:44:28;8.57;;;6.28;;
68866;SDS011;56451;44.804;20.476;2022-08-23T03:46:55;9.07;;;6.83;;
68866;SDS011;56451;44.804;20.476;2022-08-23T03:49:20;8.90;;;6.40;;
68866;SDS011;56451;44.804;20.476;2022-08-23T03:51:52;6.72;;;5.97;;
68866;SDS011;56451;44.804;20.476;2022-08-23T03:54:18;8.93;;;6.90;;
68866;SDS011;56451;44.804;20.476;2022-08-23T03:56:49;8.20;;;5.85;;
68866;SDS011;56451;44.804;20.476;2022-08-23T03:59:31;7.45;;;6.13;;
68866;SDS011;56451;44.804;20.476;2022-08-23T04:01:59;7.65;;;5.55;;
68866;SDS011;56451;44.804;20.476;2022-08-23T04:04:25;10.68;;;5.47;;
68866;SDS011;56451;44.804;20.476;2022-08-23T04:07:10;6.27;;;5.23;;
68866;SDS011;56451;44.804;20.476;2022-08-23T04:09:37;7.13;;;5.97;;
68866;SDS011;56451;44.804;20.476;2022-08-23T04:12:03;9.27;;;6.15;;
68866;SDS011;56451;44.804;20.476;2022-08-23T04:14:29;8.23;;;5.32;;
68866;SDS011;56451;44.804;20.476;2022-08-23T04:16:55;8.23;;;5.60;;
68866;SDS011;56451;44.804;20.476;2022-08-23T04:19:20;8.18;;;5.68;;
68866;SDS011;56451;44.804;20.476;2022-08-23T04:21:59;8.02;;;6.28;;
68866;SDS011;56451;44.804;20.476;2022-08-23T04:24:29;8.43;;;5.73;;
68866;SDS011;56451;44.804;20.476;2022-08-23T04:26:55;8.50;;;5.53;;
68866;SDS011;56451;44.804;20.476;2022-08-23T04:29:21;9.15;;;5.78;;
68866;SDS011;56451;44.804;20.476;2022-08-23T04:31:47;7.93;;;6.10;;
68866;SDS011;56451;44.804;20.476;2022-08-23T04:34:13;7.57;;;5.80;;
68866;SDS011;56451;44.804;20.476;2022-08-23T04:36:41;8.65;;;5.85;;
68866;SDS011;56451;44.804;20.476;2022-08-23T04:39:07;6.97;;;5.70;;
68866;SDS011;56451;44.804;20.476;2022-08-23T04:41:35;9.13;;;6.13;;
68866;SDS011;56451;44.804;20.476;2022-08-23T04:44:19;7.28;;;6.22;;
68866;SDS011;56451;44.804;20.476;2022-08-23T04:46:46;7.47;;;5.23;;
68866;SDS011;56451;44.804;20.476;2022-08-23T04:49:14;8.88;;;5.68;;
68866;SDS011;56451;44.804;20.476;2022-08-23T04:51:41;6.30;;;5.18;;
68866;SDS011;56451;44.804;20.476;2022-08-23T04:54:07;8.85;;;5.95;;
68866;SDS011;56451;44.804;20.476;2022-08-23T04:56:38;6.22;;;5.63;;
68866;SDS011;56451;44.804;20.476;2022-08-23T04:59:05;7.37;;;5.27;;
68866;SDS011;56451;44.804;20.476;2022-08-23T05:01:32;8.80;;;6.35;;
68866;SDS011;56451;44.804;20.476;2022-08-23T05:03:59;7.32;;;5.32;;
68866;SDS011;56451;44.804;20.476;2022-08-23T05:06:27;8.77;;;6.50;;
68866;SDS011;56451;44.804;20.476;2022-08-23T05:08:53;7.50;;;5.90;;
68866;SDS011;56451;44.804;20.476;2022-08-23T05:11:19;8.27;;;5.50;;
68866;SDS011;56451;44.804;20.476;2022-08-23T05:13:46;6.90;;;5.32;;
68866;SDS011;56451;44.804;20.476;2022-08-23T05:16:13;9.40;;;5.95;;
68866;SDS011;56451;44.804;20.476;2022-08-23T05:18:47;9.15;;;5.35;;
68866;SDS011;56451;44.804;20.476;2022-08-23T05:21:14;9.65;;;5.68;;
68866;SDS011;56451;44.804;20.476;2022-08-23T05:23:43;9.80;;;5.83;;
68866;SDS011;56451;44.804;20.476;2022-08-23T05:26:15;7.47;;;5.60;;
68866;SDS011;56451;44.804;20.476;2022-08-23T05:28:42;8.52;;;6.07;;
68866;SDS011;56451;44.804;20.476;2022-08-23T05:31:12;8.10;;;5.78;;
68866;SDS011;56451;44.804;20.476;2022-08-23T05:33:50;7.47;;;5.82;;
68866;SDS011;56451;44.804;20.476;2022-08-23T05:36:25;8.07;;;6.53;;
68866;SDS011;56451;44.804;20.476;2022-08-23T05:38:51;10.23;;;6.70;;
68866;SDS011;56451;44.804;20.476;2022-08-23T05:41:18;10.13;;;6.38;;
68866;SDS011;56451;44.804;20.476;2022-08-23T05:43:45;9.25;;;6.50;;
68866;SDS011;56451;44.804;20.476;2022-08-23T05:46:13;10.52;;;7.13;;
68866;SDS011;56451;44.804;20.476;2022-08-23T05:48:47;8.20;;;6.57;;
68866;SDS011;56451;44.804;20.476;2022-08-23T05:51:19;7.88;;;5.97;;
68866;SDS011;56451;44.804;20.476;2022-08-23T05:53:50;9.35;;;7.50;;
68866;SDS011;56451;44.804;20.476;2022-08-23T05:56:23;9.77;;;6.75;;
68866;SDS011;56451;44.804;20.476;2022-08-23T05:58:52;9.00;;;6.57;;
68866;SDS011;56451;44.804;20.476;2022-08-23T06:01:20;8.40;;;7.10;;
68866;SDS011;56451;44.804;20.476;2022-08-23T06:03:48;8.85;;;7.63;;
68866;SDS011;56451;44.804;20.476;2022-08-23T06:06:14;9.13;;;7.45;;
68866;SDS011;56451;44.804;20.476;2022-08-23T06:08:42;7.82;;;6.60;;
68866;SDS011;56451;44.804;20.476;2022-08-23T06:11:12;8.70;;;7.28;;
68866;SDS011;56451;44.804;20.476;2022-08-23T06:13:42;9.67;;;6.97;;
68866;SDS011;56451;44.804;20.476;2022-08-23T06:16:12;9.32;;;6.90;;
68866;SDS011;56451;44.804;20.476;2022-08-23T06:18:39;9.15;;;6.07;;
68866;SDS011;56451;44.804;20.476;2022-08-23T06:21:37;8.68;;;7.00;;
68866;SDS011;56451;44.804;20.476;2022-08-23T06:24:04;8.80;;;7.07;;
68866;SDS011;56451;44.804;20.476;2022-08-23T06:26:32;8.43;;;6.80;;
68866;SDS011;56451;44.804;20.476;2022-08-23T06:29:02;7.78;;;6.57;;
68866;SDS011;56451;44.804;20.476;2022-08-23T06:31:30;8.95;;;7.25;;
68866;SDS011;56451;44.804;20.476;2022-08-23T06:34:28;8.65;;;7.35;;
68866;SDS011;56451;44.804;20.476;2022-08-23T06:37:20;10.13;;;6.82;;
68866;SDS011;56451;44.804;20.476;2022-08-23T06:40:05;9.33;;;7.67;;
68866;SDS011;56451;44.804;20.476;2022-08-23T06:42:51;8.02;;;6.80;;
68866;SDS011;56451;44.804;20.476;2022-08-23T06:45:24;8.60;;;6.55;;
68866;SDS011;56451;44.804;20.476;2022-08-23T06:47:53;8.05;;;6.22;;
68866;SDS011;56451;44.804;20.476;2022-08-23T06:50:19;8.10;;;6.88;;
68866;SDS011;56451;44.804;20.476;2022-08-23T06:53:11;6.97;;;6.00;;
68866;SDS011;56451;44.804;20.476;2022-08-23T06:55:42;9.10;;;6.35;;
68866;SDS011;56451;44.804;20.476;2022-08-23T06:58:28;7.97;;;5.90;;
68866;SDS011;56451;44.804;20.476;2022-08-23T07:01:07;6.75;;;5.60;;
68866;SDS011;56451;44.804;20.476;2022-08-23T07:03:55;7.40;;;6.22;;
68866;SDS011;56451;44.804;20.476;2022-08-23T07:07:00;8.13;;;5.67;;
68866;SDS011;56451;44.804;20.476;2022-08-23T07:09:27;8.93;;;6.03;;
68866;SDS011;56451;44.804;20.476;2022-08-23T07:11:54;9.45;;;6.45;;
68866;SDS011;56451;44.804;20.476;2022-08-23T07:14:21;8.52;;;6.18;;
68866;SDS011;56451;44.804;20.476;2022-08-23T07:16:49;9.32;;;7.78;;
68866;SDS011;56451;44.804;20.476;2022-08-23T07:19:17;12.20;;;7.00;;
68866;SDS011;56451;44.804;20.476;2022-08-23T07:21:45;8.23;;;6.38;;
68866;SDS011;56451;44.804;20.476;2022-08-23T07:24:11;8.40;;;6.13;;
68866;SDS011;56451;44.804;20.476;2022-08-23T07:26:38;10.00;;;6.90;;
68866;SDS011;56451;44.804;20.476;2022-08-23T07:29:06;9.52;;;6.95;;
68866;SDS011;56451;44.804;20.476;2022-08-23T07:31:37;8.83;;;6.70;;
68866;SDS011;56451;44.804;20.476;2022-08-23T07:34:05;11.75;;;7.78;;
68866;SDS011;56451;44.804;20.476;2022-08-23T07:36:33;9.43;;;7.22;;
68866;SDS011;56451;44.804;20.476;2022-08-23T07:39:00;9.35;;;7.00;;
68866;SDS011;56451;44.804;20.476;2022-08-23T07:41:29;10.35;;;7.80;;
68866;SDS011;56451;44.804;20.476;2022-08-23T07:43:56;9.90;;;7.43;;
68866;SDS011;56451;44.804;20.476;2022-08-23T07:46:24;12.20;;;8.65;;
68866;SDS011;56451;44.804;20.476;2022-08-23T07:48:51;10.70;;;7.82;;
68866;SDS011;56451;44.804;20.476;2022-08-23T07:51:21;11.98;;;8.10;;
68866;SDS011;56451;44.804;20.476;2022-08-23T07:53:47;9.27;;;7.22;;
68866;SDS011;56451;44.804;20.476;2022-08-23T07:56:16;9.43;;;7.53;;
68866;SDS011;56451;44.804;20.476;2022-08-23T07:59:16;10.13;;;7.88;;
68866;SDS011;56451;44.804;20.476;2022-08-23T08:02:01;12.70;;;8.48;;
68866;SDS011;56451;44.804;20.476;2022-08-23T08:04:28;11.43;;;8.40;;
68866;SDS011;56451;44.804;20.476;2022-08-23T08:06:55;9.73;;;7.68;;
68866;SDS011;56451;44.804;20.476;2022-08-23T08:09:21;10.70;;;8.57;;
68866;SDS011;56451;44.804;20.476;2022-08-23T08:11:48;11.68;;;8.57;;
68866;SDS011;56451;44.804;20.476;2022-08-23T08:14:18;12.38;;;8.57;;
68866;SDS011;56451;44.804;20.476;2022-08-23T08:16:57;12.73;;;9.32;;
68866;SDS011;56451;44.804;20.476;2022-08-23T08:19:50;12.85;;;9.00;;
68866;SDS011;56451;44.804;20.476;2022-08-23T08:22:34;16.57;;;9.67;;
68866;SDS011;56451;44.804;20.476;2022-08-23T08:25:09;12.45;;;9.65;;
68866;SDS011;56451;44.804;20.476;2022-08-23T08:27:37;14.02;;;10.07;;
68866;SDS011;56451;44.804;20.476;2022-08-23T08:30:03;15.27;;;10.45;;
68866;SDS011;56451;44.804;20.476;2022-08-23T08:32:30;12.77;;;9.80;;
68866;SDS011;56451;44.804;20.476;2022-08-23T08:34:56;13.27;;;10.05;;
68866;SDS011;56451;44.804;20.476;2022-08-23T08:37:22;13.50;;;9.52;;
68866;SDS011;56451;44.804;20.476;2022-08-23T08:39:48;13.15;;;9.88;;
68866;SDS011;56451;44.804;20.476;2022-08-23T08:45:22;12.52;;;9.55;;
68866;SDS011;56451;44.804;20.476;2022-08-23T08:48:00;13.80;;;10.50;;
68866;SDS011;56451;44.804;20.476;2022-08-23T08:50:53;13.75;;;10.32;;
68866;SDS011;56451;44.804;20.476;2022-08-23T08:56:26;12.37;;;10.00;;
68866;SDS011;56451;44.804;20.476;2022-08-23T08:59:13;12.80;;;10.18;;
68866;SDS011;56451;44.804;20.476;2022-08-23T09:01:46;12.55;;;9.80;;
68866;SDS011;56451;44.804;20.476;2022-08-23T09:04:16;13.30;;;10.65;;
68866;SDS011;56451;44.804;20.476;2022-08-23T09:10:04;12.43;;;9.93;;
68866;SDS011;56451;44.804;20.476;2022-08-23T09:18:24;12.70;;;9.75;;
68866;SDS011;56451;44.804;20.476;2022-08-23T09:20:51;14.73;;;10.40;;
68866;SDS011;56451;44.804;20.476;2022-08-23T09:24:00;12.80;;;10.07;;
68866;SDS011;56451;44.804;20.476;2022-08-23T09:26:23;13.73;;;10.60;;
68866;SDS011;56451;44.804;20.476;2022-08-23T09:28:53;12.40;;;9.95;;
68866;SDS011;56451;44.804;20.476;2022-08-23T09:34:04;12.55;;;9.70;;
68866;SDS011;56451;44.804;20.476;2022-08-23T09:36:56;13.83;;;10.50;;
68866;SDS011;56451;44.804;20.476;2022-08-23T09:39:35;13.70;;;10.15;;
68866;SDS011;56451;44.804;20.476;2022-08-23T09:42:31;12.45;;;10.00;;
68866;SDS011;56451;44.804;20.476;2022-08-23T09:45:03;11.52;;;8.70;;
68866;SDS011;56451;44.804;20.476;2022-08-23T09:47:35;9.88;;;8.48;;
68866;SDS011;56451;44.804;20.476;2022-08-23T09:50:07;13.10;;;9.70;;
68866;SDS011;56451;44.804;20.476;2022-08-23T09:52:47;14.82;;;11.13;;
68866;SDS011;56451;44.804;20.476;2022-08-23T09:55:35;14.18;;;10.73;;
68866;SDS011;56451;44.804;20.476;2022-08-23T09:58:17;15.40;;;12.05;;
68866;SDS011;56451;44.804;20.476;2022-08-23T10:01:07;14.00;;;11.05;;
68866;SDS011;56451;44.804;20.476;2022-08-23T10:06:50;13.02;;;10.55;;
68866;SDS011;56451;44.804;20.476;2022-08-23T10:09:36;13.95;;;10.60;;
68866;SDS011;56451;44.804;20.476;2022-08-23T10:12:03;11.25;;;9.35;;
68866;SDS011;56451;44.804;20.476;2022-08-23T10:14:32;11.75;;;9.80;;
68866;SDS011;56451;44.804;20.476;2022-08-23T10:19:43;13.15;;;9.85;;
68866;SDS011;56451;44.804;20.476;2022-08-23T10:22:20;12.15;;;9.65;;
68866;SDS011;56451;44.804;20.476;2022-08-23T10:25:31;11.35;;;10.02;;
68866;SDS011;56451;44.804;20.476;2022-08-23T10:28:14;12.43;;;9.77;;
68866;SDS011;56451;44.804;20.476;2022-08-23T10:39:29;15.07;;;9.48;;
68866;SDS011;56451;44.804;20.476;2022-08-23T10:42:03;10.13;;;8.02;;
68866;SDS011;56451;44.804;20.476;2022-08-23T10:44:49;9.43;;;7.87;;
68866;SDS011;56451;44.804;20.476;2022-08-23T10:48:02;9.50;;;7.82;;
68866;SDS011;56451;44.804;20.476;2022-08-23T10:50:33;8.93;;;7.15;;
68866;SDS011;56451;44.804;20.476;2022-08-23T10:53:09;11.00;;;8.65;;
68866;SDS011;56451;44.804;20.476;2022-08-23T10:55:39;11.57;;;8.30;;
68866;SDS011;56451;44.804;20.476;2022-08-23T10:58:47;9.93;;;8.53;;
68866;SDS011;56451;44.804;20.476;2022-08-23T11:01:20;13.57;;;9.07;;
68866;SDS011;56451;44.804;20.476;2022-08-23T11:03:59;11.10;;;8.88;;
68866;SDS011;56451;44.804;20.476;2022-08-23T11:06:42;11.13;;;8.43;;
68866;SDS011;56451;44.804;20.476;2022-08-23T11:11:43;11.43;;;9.20;;
68866;SDS011;56451;44.804;20.476;2022-08-23T11:14:11;11.60;;;9.32;;
68866;SDS011;56451;44.804;20.476;2022-08-23T11:16:59;11.55;;;9.07;;
68866;SDS011;56451;44.804;20.476;2022-08-23T11:19:50;11.38;;;9.50;;
68866;SDS011;56451;44.804;20.476;2022-08-23T11:22:24;12.60;;;9.15;;
68866;SDS011;56451;44.804;20.476;2022-08-23T11:24:56;12.50;;;9.53;;
68866;SDS011;56451;44.804;20.476;2022-08-23T11:33:13;12.10;;;9.80;;
68866;SDS011;56451;44.804;20.476;2022-08-23T11:35:50;12.60;;;9.95;;
68866;SDS011;56451;44.804;20.476;2022-08-23T11:41:58;11.52;;;9.73;;
68866;SDS011;56451;44.804;20.476;2022-08-23T11:44:46;11.52;;;9.52;;
68866;SDS011;56451;44.804;20.476;2022-08-23T11:47:14;13.50;;;10.32;;
68866;SDS011;56451;44.804;20.476;2022-08-23T11:50:23;11.73;;;10.23;;
68866;SDS011;56451;44.804;20.476;2022-08-23T11:53:05;11.87;;;9.60;;
68866;SDS011;56451;44.804;20.476;2022-08-23T12:01:26;10.82;;;8.90;;
68866;SDS011;56451;44.804;20.476;2022-08-23T12:04:00;14.15;;;10.73;;
68866;SDS011;56451;44.804;20.476;2022-08-23T12:06:46;12.30;;;9.97;;
68866;SDS011;56451;44.804;20.476;2022-08-23T12:19:51;13.35;;;9.40;;
68866;SDS011;56451;44.804;20.476;2022-08-23T12:22:25;10.32;;;9.20;;
68866;SDS011;56451;44.804;20.476;2022-08-23T12:27:32;10.97;;;9.87;;
68866;SDS011;56451;44.804;20.476;2022-08-23T12:35:39;14.75;;;8.88;;
68866;SDS011;56451;44.804;20.476;2022-08-23T12:40:52;11.47;;;8.70;;
68866;SDS011;56451;44.804;20.476;2022-08-23T12:43:21;10.40;;;8.98;;
68866;SDS011;56451;44.804;20.476;2022-08-23T12:45:54;11.52;;;8.43;;
68866;SDS011;56451;44.804;20.476;2022-08-23T12:48:22;10.63;;;8.37;;
68866;SDS011;56451;44.804;20.476;2022-08-23T12:51:15;12.05;;;8.68;;
68866;SDS011;56451;44.804;20.476;2022-08-23T12:53:41;11.18;;;9.05;;
68866;SDS011;56451;44.804;20.476;2022-08-23T12:58:47;11.52;;;8.48;;
68866;SDS011;56451;44.804;20.476;2022-08-23T13:01:22;9.63;;;8.07;;
68866;SDS011;56451;44.804;20.476;2022-08-23T13:03:52;10.25;;;8.18;;
68866;SDS011;56451;44.804;20.476;2022-08-23T13:06:28;14.20;;;8.43;;
68866;SDS011;56451;44.804;20.476;2022-08-23T13:09:05;9.18;;;8.13;;
68866;SDS011;56451;44.804;20.476;2022-08-23T13:11:33;11.38;;;8.38;;
68866;SDS011;56451;44.804;20.476;2022-08-23T13:14:19;12.00;;;8.67;;
68866;SDS011;56451;44.804;20.476;2022-08-23T13:16:48;11.25;;;8.57;;
68866;SDS011;56451;44.804;20.476;2022-08-23T13:35:36;11.50;;;9.15;;
68866;SDS011;56451;44.804;20.476;2022-08-23T13:38:09;12.60;;;8.85;;
68866;SDS011;56451;44.804;20.476;2022-08-23T13:43:39;12.00;;;8.82;;
68866;SDS011;56451;44.804;20.476;2022-08-23T13:46:32;11.88;;;9.10;;
68866;SDS011;56451;44.804;20.476;2022-08-23T13:49:12;11.48;;;9.02;;
68866;SDS011;56451;44.804;20.476;2022-08-23T13:54:24;11.07;;;8.63;;
68866;SDS011;56451;44.804;20.476;2022-08-23T13:56:55;11.38;;;8.95;;
68866;SDS011;56451;44.804;20.476;2022-08-23T13:59:32;11.45;;;8.70;;
68866;SDS011;56451;44.804;20.476;2022-08-23T14:02:02;11.43;;;8.63;;
68866;SDS011;56451;44.804;20.476;2022-08-23T14:04:35;11.18;;;9.23;;
68866;SDS011;56451;44.804;20.476;2022-08-23T14:07:02;10.90;;;8.63;;
68866;SDS011;56451;44.804;20.476;2022-08-23T14:09:29;11.07;;;8.52;;
68866;SDS011;56451;44.804;20.476;2022-08-23T14:11:56;9.45;;;8.43;;
68866;SDS011;56451;44.804;20.476;2022-08-23T14:14:24;9.40;;;8.30;;
68866;SDS011;56451;44.804;20.476;2022-08-23T14:16:51;11.80;;;8.43;;
68866;SDS011;56451;44.804;20.476;2022-08-23T14:19:18;10.25;;;8.48;;
68866;SDS011;56451;44.804;20.476;2022-08-23T14:21:44;11.98;;;8.73;;
68866;SDS011;56451;44.804;20.476;2022-08-23T14:24:11;11.10;;;8.70;;
68866;SDS011;56451;44.804;20.476;2022-08-23T14:26:36;11.17;;;8.33;;
68866;SDS011;56451;44.804;20.476;2022-08-23T14:29:03;10.52;;;8.60;;
68866;SDS011;56451;44.804;20.476;2022-08-23T14:31:29;10.02;;;7.65;;
68866;SDS011;56451;44.804;20.476;2022-08-23T14:33:55;13.00;;;8.17;;
68866;SDS011;56451;44.804;20.476;2022-08-23T14:36:21;11.88;;;7.63;;
68866;SDS011;56451;44.804;20.476;2022-08-23T14:38:47;12.85;;;8.48;;
68866;SDS011;56451;44.804;20.476;2022-08-23T14:41:17;10.93;;;8.07;;
68866;SDS011;56451;44.804;20.476;2022-08-23T14:43:46;11.30;;;8.52;;
68866;SDS011;56451;44.804;20.476;2022-08-23T14:46:12;11.02;;;8.32;;
68866;SDS011;56451;44.804;20.476;2022-08-23T14:48:38;10.00;;;7.75;;
68866;SDS011;56451;44.804;20.476;2022-08-23T14:51:04;12.87;;;8.30;;
68866;SDS011;56451;44.804;20.476;2022-08-23T14:53:30;10.75;;;8.60;;
68866;SDS011;56451;44.804;20.476;2022-08-23T14:55:58;11.82;;;8.48;;
68866;SDS011;56451;44.804;20.476;2022-08-23T14:58:24;12.30;;;8.47;;
68866;SDS011;56451;44.804;20.476;2022-08-23T15:00:50;8.63;;;7.63;;
68866;SDS011;56451;44.804;20.476;2022-08-23T15:03:26;12.55;;;7.55;;
68866;SDS011;56451;44.804;20.476;2022-08-23T15:05:52;11.38;;;7.60;;
68866;SDS011;56451;44.804;20.476;2022-08-23T15:08:18;10.18;;;7.32;;
68866;SDS011;56451;44.804;20.476;2022-08-23T15:10:45;8.77;;;6.50;;
68866;SDS011;56451;44.804;20.476;2022-08-23T15:13:11;9.52;;;6.90;;
68866;SDS011;56451;44.804;20.476;2022-08-23T15:15:37;8.95;;;7.05;;
68866;SDS011;56451;44.804;20.476;2022-08-23T15:18:06;10.93;;;7.80;;
68866;SDS011;56451;44.804;20.476;2022-08-23T15:20:34;9.23;;;7.47;;
68866;SDS011;56451;44.804;20.476;2022-08-23T15:23:03;8.90;;;7.20;;
68866;SDS011;56451;44.804;20.476;2022-08-23T15:25:30;9.70;;;6.80;;
68866;SDS011;56451;44.804;20.476;2022-08-23T15:27:58;10.23;;;7.45;;
68866;SDS011;56451;44.804;20.476;2022-08-23T15:30:26;10.70;;;7.60;;
68866;SDS011;56451;44.804;20.476;2022-08-23T15:32:52;9.25;;;6.85;;
68866;SDS011;56451;44.804;20.476;2022-08-23T15:35:19;8.88;;;7.57;;
68866;SDS011;56451;44.804;20.476;2022-08-23T15:37:45;8.55;;;7.43;;
68866;SDS011;56451;44.804;20.476;2022-08-23T15:40:11;8.80;;;7.60;;
68866;SDS011;56451;44.804;20.476;2022-08-23T15:42:37;11.07;;;8.53;;
68866;SDS011;56451;44.804;20.476;2022-08-23T15:45:03;10.77;;;8.10;;
68866;SDS011;56451;44.804;20.476;2022-08-23T15:47:30;12.70;;;7.78;;
68866;SDS011;56451;44.804;20.476;2022-08-23T15:50:27;12.65;;;8.57;;
68866;SDS011;56451;44.804;20.476;2022-08-23T15:52:57;9.97;;;7.83;;
68866;SDS011;56451;44.804;20.476;2022-08-23T15:55:24;12.00;;;7.93;;
68866;SDS011;56451;44.804;20.476;2022-08-23T15:57:54;10.25;;;8.10;;
68866;SDS011;56451;44.804;20.476;2022-08-23T16:00:22;9.60;;;8.05;;
68866;SDS011;56451;44.804;20.476;2022-08-23T16:02:49;10.02;;;7.32;;
68866;SDS011;56451;44.804;20.476;2022-08-23T16:05:16;11.00;;;7.80;;
68866;SDS011;56451;44.804;20.476;2022-08-23T16:07:42;10.25;;;7.97;;
68866;SDS011;56451;44.804;20.476;2022-08-23T16:10:08;9.20;;;7.15;;
68866;SDS011;56451;44.804;20.476;2022-08-23T16:12:37;9.27;;;7.53;;
68866;SDS011;56451;44.804;20.476;2022-08-23T16:15:03;9.90;;;7.80;;
68866;SDS011;56451;44.804;20.476;2022-08-23T16:17:30;11.45;;;7.88;;
68866;SDS011;56451;44.804;20.476;2022-08-23T16:19:56;11.18;;;8.25;;
68866;SDS011;56451;44.804;20.476;2022-08-23T16:22:22;10.83;;;8.60;;
68866;SDS011;56451;44.804;20.476;2022-08-23T16:24:47;10.30;;;8.10;;
68866;SDS011;56451;44.804;20.476;2022-08-23T16:27:13;9.60;;;7.87;;
68866;SDS011;56451;44.804;20.476;2022-08-23T16:29:39;9.98;;;7.75;;
68866;SDS011;56451;44.804;20.476;2022-08-23T16:32:05;9.20;;;6.65;;
68866;SDS011;56451;44.804;20.476;2022-08-23T16:34:32;9.10;;;7.47;;
68866;SDS011;56451;44.804;20.476;2022-08-23T16:37:00;10.30;;;6.57;;
68866;SDS011;56451;44.804;20.476;2022-08-23T16:39:29;11.27;;;7.38;;
68866;SDS011;56451;44.804;20.476;2022-08-23T16:41:57;7.75;;;6.68;;